Overview Statistics Trail Chart Weather Telemetry Raw packets
 

This is the latest recevied weather packets stored in our database for station/object K7DC. If no packets are shown the sender has not sent any weather packets the latest 10 day(s).

<< 84 85 86 87 88 89 90 >>
Time Temp. Humidity Pressure Rain* Wind** Luminosity Snow
1788018819 35° C 34% 1016.8 hPa 0 mm - 493 W/m² -
1788018514 35° C 35% 1016.7 hPa 0 mm - 437 W/m² -
1788018213 35° C 34% 1016.6 hPa 0 mm - 432 W/m² -
1788017910 34.44° C 36% 1016.6 hPa 0 mm - 436 W/m² -
1788017606 33.33° C 40% 1016.6 hPa 0 mm - 115 W/m² -
1788017302 32.78° C 43% 1016.5 hPa 0 mm - 393 W/m² -
1788016999 32.78° C 43% 1016.7 hPa 0 mm - 372 W/m² -
1788016698 31.67° C 44% 1016.6 hPa 0 mm - 85 W/m² -
1788016396 31.11° C 44% 1016.6 hPa 0 mm - 330 W/m² -
1788016096 30.56° C 45% 1016.7 hPa 0 mm - 314 W/m² -
1788015795 31.11° C 45% 1016.7 hPa 0 mm - 293 W/m² -
1788015490 31.11° C 46% 1016.6 hPa 0 mm - 185 W/m² -
1788015185 30.56° C 47% 1016.7 hPa 0 mm - 255 W/m² -
1788014883 30.56° C 47% 1016.6 hPa 0 mm - 235 W/m² -
1788014578 30° C 46% 1016.5 hPa 0 mm - 74 W/m² -
1788014273 30° C 46% 1016.6 hPa 0 mm - 199 W/m² -
1788013969 28.89° C 48% 1016.4 hPa 0 mm - 70 W/m² -
1788013663 28.89° C 49% 1016.6 hPa 0 mm - 162 W/m² -
1788013358 28.89° C 50% 1016.4 hPa 0 mm - 145 W/m² -
1788013057 28.33° C 52% 1016.5 hPa 0 mm - 133 W/m² -
1788012756 27.78° C 51% 1016.4 hPa 0 mm - 117 W/m² -
1788012452 27.78° C 52% 1016.4 hPa 0 mm - 105 W/m² -
1788012151 27.78° C 52% 1016.3 hPa 0 mm - 92 W/m² -
1788011851 27.22° C 53% 1016.1 hPa 0 mm - 80 W/m² -
1788011549 27.22° C 53% 1016.3 hPa 0 mm - 71 W/m² -

* Rain latest hour (hover to see other rain measurements)
** Current wind speed in m/s (hover to see current wind gust speed)